NCAR-RAP Real-Time Weather Data

Output produced by METARs form (17 October 2018  15:36 UTC)
found at http://weather.rap.ucar.edu/surface/
 
KSYR 171512Z 30017G25KT 10SM -RA BKN024 BKN030 OVC090 08/04 A2987 RMK AO2 WSHFT 1457 RAB12 P0000 T00830039
KSYR 171454Z 23017G23KT 10SM SCT033 BKN041 OVC090 11/05 A2984 RMK AO2 PK WND 24026/1413 CIG 033 NW SLP104 T01110050 58005
KSYR 171354Z 25013KT 10SM BKN034 BKN060 10/04 A2985 RMK AO2 SLP105 T01000039
KSYR 171254Z 23012KT 10SM SCT075 BKN100 09/04 A2986 RMK AO2 SLP109 T00940039
KSYR 171154Z 23012KT 10SM SCT075 BKN090 08/03 A2986 RMK AO2 SLP108 BKN V SCT 60000 T00830028 10089 20078 55004
KSYR 171054Z 21010KT 10SM FEW065 BKN090 08/02 A2985 RMK AO2 SLP107 T00830022 $
KSYR 170954Z 19009KT 10SM OVC065 08/02 A2985 RMK AO2 RAE35 SLP106 P0000 T00830022 $
KSYR 170854Z 21009KT 10SM -RA BKN049 OVC070 08/03 A2987 RMK AO2 SLP113 BKN V OVC P0000 60000 T00780028 58016 $
KSYR 170754Z 22009KT 10SM -RA OVC055 08/01 A2989 RMK AO2 PK WND 21026/0712 RAB29 SLP121 P0000 T00830011 $
KSYR 170654Z 22010KT 10SM BKN080 OVC095 08/01 A2990 RMK AO2 SLP123 BKN V OVC T00830006 $
KSYR 170554Z 21010KT 10SM BKN095 BKN110 08/01 A2992 RMK AO2 SLP129 T00830006 10083 20033 58016 /
KSYR 170354Z 20006KT 10SM BKN049 06/02 A2995 RMK AO2 SLP141 T00610022 $
KSYR 170254Z 13003KT 10SM FEW100 04/02 A2996 RMK AO2 SLP146 T00390017 58004 $
KSYR 170154Z 13003KT 10SM FEW100 05/02 A2997 RMK AO2 SLP148 T00500017 $
KSYR 170054Z 15003KT 10SM FEW050 SCT100 06/02 A2998 RMK AO2 SLP150 T00560022 $
KSYR 162354Z 18005KT 10SM FEW050 SCT100 07/02 A2998 RMK AO2 SLP150 56010 T00720017 10111 20072 $
KSYR 162254Z 21005KT 10SM FEW049 BKN060 08/01 A2999 RMK AO2 SLP157 T00830011 $
KSYR 162154Z 22010KT 10SM BKN050 09/01 A3000 RMK AO2 SLP158 T00940006 $
KSYR 162054Z 23010KT 10SM SCT050 10/01 A3001 RMK AO2 SLP160 T01000011 58023
KSYR 161954Z 25011KT 10SM SCT050 10/00 A3004 RMK AO2 SLP171 T01000000
KSYR 161854Z 23012G19KT 10SM SCT048 11/00 A3005 RMK AO2 SLP176 T01060000
KSYR 161754Z 25013G21KT 10SM BKN046 09/M01 A3008 RMK AO2 SLP183 BKN V SCT T00941006 10106 20044 58023
KSYR 161654Z 25013G19KT 10SM BKN046 09/M01 A3011 RMK AO2 SLP194 T00891011
KSYR 161554Z 26014KT 10SM BKN048 08/M01 A3013 RMK AO2 SLP202 T00781011
KSYR 161454Z 24011G22KT 10SM FEW045 SCT050 09/M01 A3015 RMK AO2 SLP207 T00891006 50003
KSYR 161354Z 24015KT 10SM SCT050 BKN070 08/00 A3015 RMK AO2 SLP209 T00830000
KSYR 161254Z 24011KT 10SM BKN055 05/M01 A3015 RMK AO2 SLP208 T00501011
KSYR 161154Z 25015KT 10SM BKN050 04/M01 A3014 RMK AO2 SLP204 70004 T00441011 10067 20044 52010
KSYR 161054Z 25010KT 10SM OVC050 04/M01 A3012 RMK AO2 SLP199 OVC V BKN T00441011
KSYR 160954Z 25014KT 10SM OVC055 04/M02 A3012 RMK AO2 SLP197 T00441017
KSYR 160854Z 25013KT 10SM OVC050 05/M02 A3011 RMK AO2 SLP192 T00501017 53006
KSYR 160754Z 24013KT 10SM OVC050 05/M02 A3009 RMK AO2 SLP187 T00501017
KSYR 160654Z 26012KT 10SM BKN047 BKN055 06/M02 A3009 RMK AO2 SLP186 T00561017
KSYR 160554Z 28011KT 10SM SCT049 BKN060 07/M02 A3009 RMK AO2 SLP186 60000 T00671017 10128 20061 51024
KSYR 160454Z 29012KT 10SM BKN060 07/M03 A3007 RMK AO2 PK WND 29029/0357 SLP178 T00671028 401720050
KSYR 160354Z 29019G29KT 10SM FEW048 BKN055 08/M02 A3005 RMK AO2 PK WND 28042/0255 SLP174 T00781022
KSYR 160254Z 29023G42KT 10SM SCT035 BKN047 OVC060 08/01 A3001 RMK AO2 PK WND 27042/0247 CIG 037 NW PRESRR SLP161 60000 T00830011 53051
KSYR 160154Z 27018G24KT 10SM BKN055 11/04 A2995 RMK AO2 PK WND 28031/0140 SLP138 T01060044
KSYR 160054Z 27021G31KT 10SM SCT035 OVC042 12/06 A2989 RMK AO2 PK WND 26031/0045 RAB00E09B33E43 SLP120 P0000 T01170061
KSYR 152354Z 26013G21KT 10SM BKN038 OVC045 13/08 A2986 RMK AO2 PK WND 27029/2325 SLP110 60004 T01280078 10172 20128 53031
KSYR 152254Z 27016G26KT 10SM FEW038 BKN046 OVC060 13/09 A2982 RMK AO2 PK WND 27026/2221 SLP095 T01330089
KSYR 152154Z 26013KT 10SM FEW015 SCT020 OVC032 14/11 A2979 RMK AO2 PK WND 27027/2100 WSHFT 2054 RAE19 SLP086 P0002 T01390111
KSYR 152114Z 27017KT 10SM -RA FEW015 SCT020 OVC032 14/13 A2978 RMK AO2 PK WND 27027/2100 WSHFT 2054 P0002 T01440128
KSYR 152054Z 24010KT 8SM -RA SCT020 OVC032 16/14 A2977 RMK AO2 RAB1956E23B41 SLP078 P0002 60002 T01560144 55004
KSYR 151954Z 22010G23KT 10SM BKN032 OVC043 16/14 A2977 RMK AO2 SLP077 T01610139
KSYR 151854Z 18009G18KT 10SM FEW030 BKN038 OVC045 17/13 A2976 RMK AO2 SLP074 T01670133
KSYR 151754Z 18012G18KT 10SM FEW027 BKN032 OVC042 17/13 A2978 RMK AO2 SLP083 60000 T01670128 10167 20089 58031
KSYR 151717Z 20012KT 10SM SCT025 BKN030 OVC037 16/13 A2980 RMK AO2 T01610128
KSYR 151654Z 20005KT 10SM BKN023 BKN030 OVC042 15/12 A2982 RMK AO2 SLP095 T01500122
KSYR 151554Z 20007KT 10SM BKN025 BKN038 OVC048 14/12 A2986 RMK AO2 SLP108 T01390117
KSYR 151454Z VRB05KT 10SM SCT022 BKN030 OVC036 12/11 A2988 RMK AO2 RAE1357 SLP116 P0000 60000 T01220106 58030
KSYR 151354Z 03003KT 10SM -RA FEW018 BKN024 OVC030 11/09 A2992 RMK AO2 SLP129 PCPN VRY LGT P0000 T01060094
KSYR 151254Z 00000KT 9SM -RA SCT020 BKN026 OVC032 09/08 A2994 RMK AO2 RAE11B49 SLP138 PCPN VRY LGT P0000 T00890083
KSYR 151154Z 10005KT 10SM -RA FEW019 BKN026 OVC032 09/08 A2997 RMK AO2 SLP146 P0001 60001 70001 T00890078 10089 20050 56022
KSYR 151054Z 09006KT 10SM -RA FEW043 BKN050 OVC070 08/07 A2999 RMK AO2 RAB50 SLP153 P0000 T00780067
KSYR 150954Z 08005KT 10SM BKN095 OVC120 07/06 A3001 RMK AO2 SLP160 BKN V OVC T00670056
KSYR 150854Z 08005KT 10SM SCT120 BKN250 06/05 A3003 RMK AO2 SLP167 T00610050 58023
KSYR 150754Z 09006KT 10SM FEW220 BKN250 06/04 A3006 RMK AO2 SLP179 BKN V OVC T00560044
KSYR 150654Z 09006KT 10SM SCT230 05/04 A3008 RMK AO2 SLP183 T00500039
KSYR 150554Z 10005KT 10SM FEW250 05/04 A3010 RMK AO2 SLP192 T00500039 10089 20050 56014
KSYR 150454Z 13003KT 10SM FEW250 07/04 A3011 RMK AO2 SLP196 T00670044 401500039
KSYR 150354Z 13004KT 10SM FEW200 07/04 A3012 RMK AO2 SLP200 T00670044
KSYR 150254Z 14005KT 10SM CLR 07/05 A3014 RMK AO2 SLP206 T00720050 50004
KSYR 150154Z 13004KT 10SM CLR 07/05 A3015 RMK AO2 SLP207 T00720050
KSYR 150054Z 13006KT 10SM CLR 07/05 A3014 RMK AO2 SLP204 T00720050
KSYR 142354Z 11004KT 10SM FEW250 09/06 A3013 RMK AO2 SLP202 T00940056 10150 20094 58000
KSYR 142254Z 09004KT 10SM FEW050 FEW250 09/06 A3013 RMK AO2 SLP202 T00940056
KSYR 142154Z 00000KT 10SM FEW050 FEW250 13/06 A3013 RMK AO2 SLP203 T01280056
KSYR 142054Z 00000KT 10SM SCT050 14/04 A3013 RMK AO2 SLP202 T01440039 56011
KSYR 141954Z VRB03KT 10SM BKN050 14/04 A3014 RMK AO2 SLP206 T01440044
KSYR 141854Z 19007KT 10SM SCT045 BKN200 14/04 A3015 RMK AO2 SLP209 T01390044
KSYR 141754Z 23009KT 10SM SCT040 SCT250 13/04 A3016 RMK AO2 SLP213 T01330044 10139 20044 58016
KSYR 141654Z 22005KT 10SM FEW038 SCT180 SCT250 13/04 A3019 RMK AO2 SLP220 T01280044
KSYR 141554Z 26008KT 10SM FEW040 FEW140 SCT180 SCT250 12/04 A3020 RMK AO2 SLP227 T01220044
KSYR 141454Z 23005KT 10SM FEW040 FEW140 SCT180 SCT250 11/04 A3021 RMK AO2 SLP230 T01060039 51014
KSYR 141354Z 18005KT 10SM FEW040 FEW140 SCT180 BKN250 09/06 A3020 RMK AO2 SLP225 T00890056
KSYR 141254Z 00000KT 10SM FEW040 SCT160 BKN250 06/05 A3018 RMK AO2 SLP220 T00610050
KSYR 141154Z 00000KT 10SM BKN045 BKN160 BKN250 04/03 A3017 RMK AO2 SLP216 BKN045 V SCT 70009 T00440033 10061 20039 53011
KSYR 141054Z 14003KT 10SM FEW005 SCT038 SCT060 BKN190 BKN250 04/03 A3015 RMK AO2 SLP210 T00390028
KSYR 140954Z 16003KT 10SM FEW037 SCT050 SCT230 04/03 A3015 RMK AO2 SLP210 T00390028
KSYR 140854Z 24005KT 10SM SCT038 SCT050 BKN230 05/03 A3014 RMK AO2 SLP205 T00500028 52014
KSYR 140754Z 25005KT 10SM SCT036 SCT050 04/03 A3012 RMK AO2 SLP200 T00440033
KSYR 140654Z 24005KT 10SM FEW036 SCT060 04/03 A3011 RMK AO2 SLP196 T00440028
KSYR 140554Z 27006KT 10SM SCT040 SCT060 06/03 A3010 RMK AO2 SLP191 T00560028 10078 20056 51017
KSYR 140454Z 25008KT 10SM SCT039 BKN050 OVC060 07/03 A3009 RMK AO2 SLP188 T00720033 400890056
KSYR 140354Z 24007KT 10SM BKN060 07/03 A3006 RMK AO2 SLP179 T00670033
KSYR 140254Z 25008KT 10SM OVC060 07/03 A3004 RMK AO2 SLP172 T00720033 51013
KSYR 140154Z 23006KT 10SM OVC055 07/03 A3004 RMK AO2 SLP171 T00720033
KSYR 140054Z 24006KT 10SM OVC060 08/03 A3002 RMK AO2 SLP165 T00780033
KSYR 132354Z 31004KT 10SM OVC060 08/04 A3001 RMK AO2 SLP160 60001 T00780039 10089 20067 53016
KSYR 132254Z 29004KT 10SM OVC060 08/04 A2998 RMK AO2 SLP152 T00830039
KSYR 132154Z 26007KT 10SM BKN055 08/04 A2996 RMK AO2 SLP144 T00830044
KSYR 132054Z 27006KT 10SM FEW025 BKN065 08/05 A2996 RMK AO2 SLP143 60001 T00830050 53011
KSYR 132029Z 30005KT 10SM FEW023 OVC060 08/05 A2995 RMK AO2 T00830050
KSYR 131954Z 29007KT 10SM SCT015 BKN021 BKN041 08/05 A2994 RMK AO2 SLP137 T00830050
KSYR 131943Z 27009KT 10SM BKN015 BKN065 09/06 A2994 RMK AO2 T00890056
KSYR 131858Z 32009KT 10SM SCT015 BKN023 BKN036 08/06 A2993 RMK AO2 T00780061
KSYR 131854Z 32009KT 10SM FEW010 BKN018 BKN037 08/06 A2993 RMK AO2 RAE35 SLP133 P0001 T00780056
KSYR 131754Z 28010KT 6SM -RA BR FEW010 BKN018 OVC024 07/06 A2992 RMK AO2 WSHFT 1718 RAB22 SLP133 P0002 60008 T00670056 10089 20056 53014
KSYR 131738Z 32011KT 10SM -RA FEW010 BKN018 OVC023 07/06 A2991 RMK AO2 WSHFT 1718 RAB22 P0000 T00720056
KSYR 131654Z 28009KT 10SM BKN015 BKN023 08/06 A2990 RMK AO2 DZE1557B28E52RAB26E28 SLP124 P0001 T00780061
KSYR 131635Z 26013KT 7SM -DZ BKN015 OVC023 07/06 A2990 RMK AO2 DZE1557B28RAB26E28 P0000 T00720061
KSYR 131601Z 30005KT 10SM BKN013 BKN023 OVC032 07/06 A2989 RMK AO2 DZE1557 P0000 T00720061
KSYR 131554Z 28006KT 8SM -DZ FEW009 BKN023 OVC036 07/06 A2989 RMK AO2 SLP121 P0002 T00720061
KSYR 131526Z 27008KT 9SM -DZ FEW009 BKN023 OVC036 07/06 A2989 RMK AO2 P0001 T00720061
KSYR 131454Z 26011KT 10SM -DZ BKN015 OVC020 07/06 A2988 RMK AO2 RAE23DZB23 SLP117 P0000 60003 T00670056 51014
KSYR 131428Z 26009KT 10SM -DZ FEW012 BKN018 OVC028 07/06 A2988 RMK AO2 RAE23DZB23 P0000 T00670056
KSYR 131358Z 27008KT 10SM -RA FEW009 OVC021 07/06 A2987 RMK AO2 P0000 T00670056
KSYR 131354Z 26009KT 10SM -RA FEW010 BKN018 OVC024 06/06 A2987 RMK AO2 DZE19RAB19 SLP112 PCPN VRY LGT P0002 T00610056
KSYR 131301Z 26010KT 10SM -DZ SCT011 BKN016 OVC023 06/05 A2986 RMK AO2 P0000 T00610050
KSYR 131254Z 25008KT 9SM -DZ SCT011 SCT016 OVC023 06/06 A2986 RMK AO2 SLP109 P0001 T00610056
KSYR 131220Z 25007KT 10SM -DZ SCT012 BKN025 OVC032 06/05 A2985 RMK AO2 P0000 T00560050
KSYR 131154Z 25007KT 10SM -DZ SCT013 BKN020 OVC031 06/05 A2984 RMK AO2 RAE16DZB16 SLP103 PCPN VRY LGT P0002 60011 70015 T00560050 10067 20056 53017